sensor_id;sensor_type;location;lat;lon;timestamp;temperature;humidity
15666;DHT22;20725;51.196;3.510;2022-12-24T00:01:23;10.10;99.90
15666;DHT22;20725;51.196;3.510;2022-12-24T00:03:50;10.10;99.90
15666;DHT22;20725;51.196;3.510;2022-12-24T00:06:19;10.20;99.90
15666;DHT22;20725;51.196;3.510;2022-12-24T00:08:47;10.20;99.90
15666;DHT22;20725;51.196;3.510;2022-12-24T00:11:15;10.30;99.90
15666;DHT22;20725;51.196;3.510;2022-12-24T00:13:42;10.30;99.90
15666;DHT22;20725;51.196;3.510;2022-12-24T00:16:09;10.30;99.90
15666;DHT22;20725;51.196;3.510;2022-12-24T00:18:36;10.40;99.90
15666;DHT22;20725;51.196;3.510;2022-12-24T00:21:03;10.40;99.90
15666;DHT22;20725;51.196;3.510;2022-12-24T00:23:31;10.40;99.90
15666;DHT22;20725;51.196;3.510;2022-12-24T00:25:59;10.40;99.90
15666;DHT22;20725;51.196;3.510;2022-12-24T00:28:26;10.50;99.90
15666;DHT22;20725;51.196;3.510;2022-12-24T00:30:53;10.50;99.90
15666;DHT22;20725;51.196;3.510;2022-12-24T00:33:20;10.50;99.90
15666;DHT22;20725;51.196;3.510;2022-12-24T00:35:49;10.40;99.90
15666;DHT22;20725;51.196;3.510;2022-12-24T00:38:16;10.50;99.90
15666;DHT22;20725;51.196;3.510;2022-12-24T00:40:43;10.50;99.90
15666;DHT22;20725;51.196;3.510;2022-12-24T00:43:11;10.50;99.90
15666;DHT22;20725;51.196;3.510;2022-12-24T00:45:38;10.50;99.90
15666;DHT22;20725;51.196;3.510;2022-12-24T00:48:05;10.50;99.90
15666;DHT22;20725;51.196;3.510;2022-12-24T00:50:32;10.60;99.90
15666;DHT22;20725;51.196;3.510;2022-12-24T00:52:59;10.60;99.90
15666;DHT22;20725;51.196;3.510;2022-12-24T00:55:26;10.60;99.90
15666;DHT22;20725;51.196;3.510;2022-12-24T00:57:53;10.60;99.90
15666;DHT22;20725;51.196;3.510;2022-12-24T01:02:58;10.60;99.90
15666;DHT22;20725;51.196;3.510;2022-12-24T01:05:25;10.60;99.90
15666;DHT22;20725;51.196;3.510;2022-12-24T01:07:51;10.60;99.90
15666;DHT22;20725;51.196;3.510;2022-12-24T01:10:19;10.60;99.90
15666;DHT22;20725;51.196;3.510;2022-12-24T01:12:46;10.60;99.90
15666;DHT22;20725;51.196;3.510;2022-12-24T01:15:14;10.60;99.90
15666;DHT22;20725;51.196;3.510;2022-12-24T01:17:41;10.70;99.90
15666;DHT22;20725;51.196;3.510;2022-12-24T01:20:13;10.70;99.90
15666;DHT22;20725;51.196;3.510;2022-12-24T01:22:40;10.70;99.90
15666;DHT22;20725;51.196;3.510;2022-12-24T01:25:07;10.70;99.90
15666;DHT22;20725;51.196;3.510;2022-12-24T01:27:34;10.70;99.90
15666;DHT22;20725;51.196;3.510;2022-12-24T01:30:01;10.70;99.90
15666;DHT22;20725;51.196;3.510;2022-12-24T01:32:28;10.70;99.90
15666;DHT22;20725;51.196;3.510;2022-12-24T01:34:55;10.70;99.90
15666;DHT22;20725;51.196;3.510;2022-12-24T01:37:23;10.70;99.90
15666;DHT22;20725;51.196;3.510;2022-12-24T01:39:50;10.70;99.90
15666;DHT22;20725;51.196;3.510;2022-12-24T01:42:38;10.70;99.90
15666;DHT22;20725;51.196;3.510;2022-12-24T01:45:43;10.70;99.90
15666;DHT22;20725;51.196;3.510;2022-12-24T01:48:16;10.70;99.90
15666;DHT22;20725;51.196;3.510;2022-12-24T01:50:45;10.80;99.90
15666;DHT22;20725;51.196;3.510;2022-12-24T01:53:14;10.70;99.90
15666;DHT22;20725;51.196;3.510;2022-12-24T01:55:44;10.80;99.90
15666;DHT22;20725;51.196;3.510;2022-12-24T01:58:12;10.70;99.90
15666;DHT22;20725;51.196;3.510;2022-12-24T02:00:41;10.70;99.90
15666;DHT22;20725;51.196;3.510;2022-12-24T02:03:08;10.80;99.90
15666;DHT22;20725;51.196;3.510;2022-12-24T02:05:41;10.80;99.90
15666;DHT22;20725;51.196;3.510;2022-12-24T02:08:10;10.80;99.90
15666;DHT22;20725;51.196;3.510;2022-12-24T02:10:39;10.70;99.90
15666;DHT22;20725;51.196;3.510;2022-12-24T02:13:06;10.70;99.90
15666;DHT22;20725;51.196;3.510;2022-12-24T02:15:42;10.70;99.90
15666;DHT22;20725;51.196;3.510;2022-12-24T02:18:21;10.70;99.90
15666;DHT22;20725;51.196;3.510;2022-12-24T02:21:14;10.60;99.90
15666;DHT22;20725;51.196;3.510;2022-12-24T02:24:07;10.60;99.90
15666;DHT22;20725;51.196;3.510;2022-12-24T02:26:55;10.60;99.90
15666;DHT22;20725;51.196;3.510;2022-12-24T02:29:55;10.60;99.90
15666;DHT22;20725;51.196;3.510;2022-12-24T02:32:29;10.50;99.90
15666;DHT22;20725;51.196;3.510;2022-12-24T02:35:01;10.50;99.90
15666;DHT22;20725;51.196;3.510;2022-12-24T02:37:32;10.50;99.90
15666;DHT22;20725;51.196;3.510;2022-12-24T02:40:03;10.50;99.90
15666;DHT22;20725;51.196;3.510;2022-12-24T02:42:36;10.40;99.90
15666;DHT22;20725;51.196;3.510;2022-12-24T02:45:08;10.60;99.90
15666;DHT22;20725;51.196;3.510;2022-12-24T02:47:37;10.70;99.90
15666;DHT22;20725;51.196;3.510;2022-12-24T02:50:07;10.70;99.90
15666;DHT22;20725;51.196;3.510;2022-12-24T02:52:35;10.70;99.90
15666;DHT22;20725;51.196;3.510;2022-12-24T02:55:05;10.70;99.90
15666;DHT22;20725;51.196;3.510;2022-12-24T02:57:49;10.60;99.90
15666;DHT22;20725;51.196;3.510;2022-12-24T03:00:20;10.50;99.90
15666;DHT22;20725;51.196;3.510;2022-12-24T03:03:12;10.60;99.90
15666;DHT22;20725;51.196;3.510;2022-12-24T03:05:47;10.60;99.90
15666;DHT22;20725;51.196;3.510;2022-12-24T03:08:20;10.60;99.90
15666;DHT22;20725;51.196;3.510;2022-12-24T03:10:54;10.50;99.90
15666;DHT22;20725;51.196;3.510;2022-12-24T03:13:23;10.50;99.90
15666;DHT22;20725;51.196;3.510;2022-12-24T03:15:52;10.40;99.90
15666;DHT22;20725;51.196;3.510;2022-12-24T03:18:20;10.40;99.90
15666;DHT22;20725;51.196;3.510;2022-12-24T03:20:53;10.50;99.90
15666;DHT22;20725;51.196;3.510;2022-12-24T03:23:22;10.50;99.90
15666;DHT22;20725;51.196;3.510;2022-12-24T03:25:49;10.40;99.90
15666;DHT22;20725;51.196;3.510;2022-12-24T03:28:18;10.30;99.90
15666;DHT22;20725;51.196;3.510;2022-12-24T03:30:46;10.20;99.90
15666;DHT22;20725;51.196;3.510;2022-12-24T03:33:16;10.20;99.90
15666;DHT22;20725;51.196;3.510;2022-12-24T03:35:43;10.20;99.90
15666;DHT22;20725;51.196;3.510;2022-12-24T03:38:10;10.20;99.90
15666;DHT22;20725;51.196;3.510;2022-12-24T03:40:37;10.30;99.90
15666;DHT22;20725;51.196;3.510;2022-12-24T03:43:04;10.20;99.90
15666;DHT22;20725;51.196;3.510;2022-12-24T03:45:31;10.00;99.90
15666;DHT22;20725;51.196;3.510;2022-12-24T03:47:58;10.00;99.90
15666;DHT22;20725;51.196;3.510;2022-12-24T03:50:26;10.00;99.90
15666;DHT22;20725;51.196;3.510;2022-12-24T03:52:53;10.00;99.90
15666;DHT22;20725;51.196;3.510;2022-12-24T03:55:20;10.10;99.90
15666;DHT22;20725;51.196;3.510;2022-12-24T03:57:47;10.10;99.90
15666;DHT22;20725;51.196;3.510;2022-12-24T04:00:15;10.10;99.90
15666;DHT22;20725;51.196;3.510;2022-12-24T04:02:42;10.00;99.90
15666;DHT22;20725;51.196;3.510;2022-12-24T04:05:13;10.00;99.90
15666;DHT22;20725;51.196;3.510;2022-12-24T04:07:42;9.90;99.90
15666;DHT22;20725;51.196;3.510;2022-12-24T04:10:10;10.00;99.90
15666;DHT22;20725;51.196;3.510;2022-12-24T04:12:37;10.00;99.90
15666;DHT22;20725;51.196;3.510;2022-12-24T04:15:05;9.90;99.90
15666;DHT22;20725;51.196;3.510;2022-12-24T04:17:32;9.90;99.90
15666;DHT22;20725;51.196;3.510;2022-12-24T04:19:59;9.90;99.90
15666;DHT22;20725;51.196;3.510;2022-12-24T04:22:26;9.80;99.90
15666;DHT22;20725;51.196;3.510;2022-12-24T04:24:54;9.80;99.90
15666;DHT22;20725;51.196;3.510;2022-12-24T04:27:21;9.80;99.90
15666;DHT22;20725;51.196;3.510;2022-12-24T04:29:48;9.80;99.90
15666;DHT22;20725;51.196;3.510;2022-12-24T04:32:15;9.80;99.90
15666;DHT22;20725;51.196;3.510;2022-12-24T04:34:42;9.90;99.90
15666;DHT22;20725;51.196;3.510;2022-12-24T04:37:09;9.90;99.90
15666;DHT22;20725;51.196;3.510;2022-12-24T04:39:36;9.90;99.90
15666;DHT22;20725;51.196;3.510;2022-12-24T04:42:04;9.80;99.90
15666;DHT22;20725;51.196;3.510;2022-12-24T04:44:31;9.70;99.90
15666;DHT22;20725;51.196;3.510;2022-12-24T04:46:58;9.70;99.90
15666;DHT22;20725;51.196;3.510;2022-12-24T04:49:25;9.70;99.90
15666;DHT22;20725;51.196;3.510;2022-12-24T04:51:52;9.70;99.90
15666;DHT22;20725;51.196;3.510;2022-12-24T04:54:19;9.80;99.90
15666;DHT22;20725;51.196;3.510;2022-12-24T04:56:45;9.70;99.90
15666;DHT22;20725;51.196;3.510;2022-12-24T04:59:14;9.80;99.90
15666;DHT22;20725;51.196;3.510;2022-12-24T05:01:41;9.70;99.90
15666;DHT22;20725;51.196;3.510;2022-12-24T05:04:08;9.70;99.90
15666;DHT22;20725;51.196;3.510;2022-12-24T05:06:36;9.70;99.90
15666;DHT22;20725;51.196;3.510;2022-12-24T05:09:03;9.80;99.90
15666;DHT22;20725;51.196;3.510;2022-12-24T05:11:30;9.80;99.90
15666;DHT22;20725;51.196;3.510;2022-12-24T05:13:57;9.80;99.90
15666;DHT22;20725;51.196;3.510;2022-12-24T05:16:25;9.80;99.90
15666;DHT22;20725;51.196;3.510;2022-12-24T05:18:52;9.90;99.90
15666;DHT22;20725;51.196;3.510;2022-12-24T05:21:20;9.90;99.90
15666;DHT22;20725;51.196;3.510;2022-12-24T05:23:48;9.90;99.90
15666;DHT22;20725;51.196;3.510;2022-12-24T05:26:47;9.90;99.90
15666;DHT22;20725;51.196;3.510;2022-12-24T05:29:15;9.90;99.90
15666;DHT22;20725;51.196;3.510;2022-12-24T05:31:43;10.00;99.90
15666;DHT22;20725;51.196;3.510;2022-12-24T05:34:11;10.00;99.90
15666;DHT22;20725;51.196;3.510;2022-12-24T05:36:38;10.10;99.90
15666;DHT22;20725;51.196;3.510;2022-12-24T05:39:06;10.00;99.90
15666;DHT22;20725;51.196;3.510;2022-12-24T05:41:34;10.00;99.90
15666;DHT22;20725;51.196;3.510;2022-12-24T05:44:00;10.00;99.90
15666;DHT22;20725;51.196;3.510;2022-12-24T05:46:27;10.10;99.90
15666;DHT22;20725;51.196;3.510;2022-12-24T05:48:56;10.00;99.90
15666;DHT22;20725;51.196;3.510;2022-12-24T05:51:22;10.10;99.90
15666;DHT22;20725;51.196;3.510;2022-12-24T05:53:50;10.00;99.90
15666;DHT22;20725;51.196;3.510;2022-12-24T05:56:18;10.00;99.90
15666;DHT22;20725;51.196;3.510;2022-12-24T05:58:45;9.90;99.90
15666;DHT22;20725;51.196;3.510;2022-12-24T06:01:13;10.00;99.90
15666;DHT22;20725;51.196;3.510;2022-12-24T06:03:40;9.90;99.90
15666;DHT22;20725;51.196;3.510;2022-12-24T06:06:10;9.90;99.90
15666;DHT22;20725;51.196;3.510;2022-12-24T06:08:38;10.00;99.90
15666;DHT22;20725;51.196;3.510;2022-12-24T06:11:07;9.90;99.90
15666;DHT22;20725;51.196;3.510;2022-12-24T06:13:34;9.90;99.90
15666;DHT22;20725;51.196;3.510;2022-12-24T06:16:02;9.90;99.90
15666;DHT22;20725;51.196;3.510;2022-12-24T06:18:30;9.80;99.90
15666;DHT22;20725;51.196;3.510;2022-12-24T06:20:57;9.80;99.90
15666;DHT22;20725;51.196;3.510;2022-12-24T06:23:28;9.80;99.90
15666;DHT22;20725;51.196;3.510;2022-12-24T06:25:56;9.90;99.90
15666;DHT22;20725;51.196;3.510;2022-12-24T06:28:26;9.90;99.90
15666;DHT22;20725;51.196;3.510;2022-12-24T06:30:53;9.90;99.90
15666;DHT22;20725;51.196;3.510;2022-12-24T06:33:20;10.00;99.90
15666;DHT22;20725;51.196;3.510;2022-12-24T06:35:47;10.00;99.90
15666;DHT22;20725;51.196;3.510;2022-12-24T06:38:14;10.00;99.90
15666;DHT22;20725;51.196;3.510;2022-12-24T06:40:44;10.00;99.90
15666;DHT22;20725;51.196;3.510;2022-12-24T06:43:11;10.00;99.90
15666;DHT22;20725;51.196;3.510;2022-12-24T06:45:39;10.10;99.90
15666;DHT22;20725;51.196;3.510;2022-12-24T06:48:06;10.10;99.90
15666;DHT22;20725;51.196;3.510;2022-12-24T06:50:33;10.10;99.90
15666;DHT22;20725;51.196;3.510;2022-12-24T06:53:00;10.10;99.90
15666;DHT22;20725;51.196;3.510;2022-12-24T06:55:27;10.00;99.90
15666;DHT22;20725;51.196;3.510;2022-12-24T06:57:56;10.00;99.90
15666;DHT22;20725;51.196;3.510;2022-12-24T07:00:23;10.10;99.90
15666;DHT22;20725;51.196;3.510;2022-12-24T07:02:49;10.10;99.90
15666;DHT22;20725;51.196;3.510;2022-12-24T07:05:16;10.00;99.90
15666;DHT22;20725;51.196;3.510;2022-12-24T07:07:44;10.00;99.90
15666;DHT22;20725;51.196;3.510;2022-12-24T07:10:12;10.10;99.90
15666;DHT22;20725;51.196;3.510;2022-12-24T07:12:39;10.00;99.90
15666;DHT22;20725;51.196;3.510;2022-12-24T07:15:09;9.90;99.90
15666;DHT22;20725;51.196;3.510;2022-12-24T07:17:36;9.90;99.90
15666;DHT22;20725;51.196;3.510;2022-12-24T07:20:04;9.90;99.90
15666;DHT22;20725;51.196;3.510;2022-12-24T07:22:31;9.90;99.90
15666;DHT22;20725;51.196;3.510;2022-12-24T07:24:58;10.00;99.90
15666;DHT22;20725;51.196;3.510;2022-12-24T07:27:25;10.00;99.90
15666;DHT22;20725;51.196;3.510;2022-12-24T07:29:52;10.10;99.90
15666;DHT22;20725;51.196;3.510;2022-12-24T07:32:20;10.10;99.90
15666;DHT22;20725;51.196;3.510;2022-12-24T07:34:47;10.20;99.90
15666;DHT22;20725;51.196;3.510;2022-12-24T07:37:14;10.20;99.90
15666;DHT22;20725;51.196;3.510;2022-12-24T07:39:41;10.20;99.90
15666;DHT22;20725;51.196;3.510;2022-12-24T07:42:08;10.20;99.90
15666;DHT22;20725;51.196;3.510;2022-12-24T07:44:35;10.20;99.90
15666;DHT22;20725;51.196;3.510;2022-12-24T07:47:02;10.10;99.90
15666;DHT22;20725;51.196;3.510;2022-12-24T07:49:30;10.20;99.90
15666;DHT22;20725;51.196;3.510;2022-12-24T07:51:57;10.20;99.90
15666;DHT22;20725;51.196;3.510;2022-12-24T07:54:24;10.20;99.90
15666;DHT22;20725;51.196;3.510;2022-12-24T07:56:51;10.30;99.90
15666;DHT22;20725;51.196;3.510;2022-12-24T07:59:19;10.30;99.90
15666;DHT22;20725;51.196;3.510;2022-12-24T08:01:46;10.30;99.90
15666;DHT22;20725;51.196;3.510;2022-12-24T08:04:13;10.30;99.90
15666;DHT22;20725;51.196;3.510;2022-12-24T08:06:42;10.40;99.90
15666;DHT22;20725;51.196;3.510;2022-12-24T08:09:08;10.30;99.90
15666;DHT22;20725;51.196;3.510;2022-12-24T08:11:35;10.30;99.90
15666;DHT22;20725;51.196;3.510;2022-12-24T08:14:02;10.30;99.90
15666;DHT22;20725;51.196;3.510;2022-12-24T08:16:29;10.30;99.90
15666;DHT22;20725;51.196;3.510;2022-12-24T08:18:56;10.30;99.90
15666;DHT22;20725;51.196;3.510;2022-12-24T08:21:23;10.30;99.90
15666;DHT22;20725;51.196;3.510;2022-12-24T08:23:51;10.40;99.90
15666;DHT22;20725;51.196;3.510;2022-12-24T08:26:18;10.40;99.90
15666;DHT22;20725;51.196;3.510;2022-12-24T08:28:45;10.40;99.90
15666;DHT22;20725;51.196;3.510;2022-12-24T08:31:12;10.50;99.90
15666;DHT22;20725;51.196;3.510;2022-12-24T08:33:40;10.60;99.90
15666;DHT22;20725;51.196;3.510;2022-12-24T08:36:08;10.60;99.90
15666;DHT22;20725;51.196;3.510;2022-12-24T08:38:35;10.60;99.90
15666;DHT22;20725;51.196;3.510;2022-12-24T08:41:03;10.60;99.90
15666;DHT22;20725;51.196;3.510;2022-12-24T08:43:30;10.60;99.90
15666;DHT22;20725;51.196;3.510;2022-12-24T08:46:01;10.50;99.90
15666;DHT22;20725;51.196;3.510;2022-12-24T08:48:28;10.70;99.90
15666;DHT22;20725;51.196;3.510;2022-12-24T08:50:55;10.60;99.90
15666;DHT22;20725;51.196;3.510;2022-12-24T08:53:22;10.70;99.90
15666;DHT22;20725;51.196;3.510;2022-12-24T08:55:49;10.70;99.90
15666;DHT22;20725;51.196;3.510;2022-12-24T08:58:17;10.70;99.90
15666;DHT22;20725;51.196;3.510;2022-12-24T09:00:44;10.70;99.90
15666;DHT22;20725;51.196;3.510;2022-12-24T09:03:13;10.80;99.90
15666;DHT22;20725;51.196;3.510;2022-12-24T09:05:41;10.90;99.90
15666;DHT22;20725;51.196;3.510;2022-12-24T09:08:08;10.90;99.90
15666;DHT22;20725;51.196;3.510;2022-12-24T09:10:35;10.90;99.90
15666;DHT22;20725;51.196;3.510;2022-12-24T09:13:02;10.90;99.90
15666;DHT22;20725;51.196;3.510;2022-12-24T09:15:30;11.00;99.90
15666;DHT22;20725;51.196;3.510;2022-12-24T09:17:57;11.00;99.90
15666;DHT22;20725;51.196;3.510;2022-12-24T09:20:24;11.10;99.90
15666;DHT22;20725;51.196;3.510;2022-12-24T09:22:51;11.20;99.90
15666;DHT22;20725;51.196;3.510;2022-12-24T09:25:18;11.30;99.90
15666;DHT22;20725;51.196;3.510;2022-12-24T09:27:45;11.40;99.90
15666;DHT22;20725;51.196;3.510;2022-12-24T09:30:13;11.50;99.90
15666;DHT22;20725;51.196;3.510;2022-12-24T09:32:41;11.30;99.90
15666;DHT22;20725;51.196;3.510;2022-12-24T09:35:08;11.60;99.90
15666;DHT22;20725;51.196;3.510;2022-12-24T09:37:36;11.80;99.90
15666;DHT22;20725;51.196;3.510;2022-12-24T09:40:04;11.90;99.90
15666;DHT22;20725;51.196;3.510;2022-12-24T09:42:39;12.00;99.90
15666;DHT22;20725;51.196;3.510;2022-12-24T09:45:13;12.10;99.90
15666;DHT22;20725;51.196;3.510;2022-12-24T09:47:46;12.60;99.90
15666;DHT22;20725;51.196;3.510;2022-12-24T09:50:29;12.60;99.90
15666;DHT22;20725;51.196;3.510;2022-12-24T09:53:01;12.50;99.90
15666;DHT22;20725;51.196;3.510;2022-12-24T09:55:32;12.50;99.90
15666;DHT22;20725;51.196;3.510;2022-12-24T09:58:01;12.30;99.90
15666;DHT22;20725;51.196;3.510;2022-12-24T10:00:32;12.20;99.90
15666;DHT22;20725;51.196;3.510;2022-12-24T10:03:09;12.20;99.90
15666;DHT22;20725;51.196;3.510;2022-12-24T10:05:43;12.50;99.90
15666;DHT22;20725;51.196;3.510;2022-12-24T10:08:19;12.60;99.90
15666;DHT22;20725;51.196;3.510;2022-12-24T10:10:50;12.90;99.90
15666;DHT22;20725;51.196;3.510;2022-12-24T10:13:28;12.90;99.90
15666;DHT22;20725;51.196;3.510;2022-12-24T10:16:02;13.50;99.90
15666;DHT22;20725;51.196;3.510;2022-12-24T10:18:41;14.20;99.90
15666;DHT22;20725;51.196;3.510;2022-12-24T10:21:14;14.20;99.90
15666;DHT22;20725;51.196;3.510;2022-12-24T10:23:46;14.00;99.90
15666;DHT22;20725;51.196;3.510;2022-12-24T10:26:17;14.30;99.90
15666;DHT22;20725;51.196;3.510;2022-12-24T10:28:48;14.20;99.90
15666;DHT22;20725;51.196;3.510;2022-12-24T10:31:18;14.00;99.90
15666;DHT22;20725;51.196;3.510;2022-12-24T10:33:52;13.90;99.90
15666;DHT22;20725;51.196;3.510;2022-12-24T10:36:25;14.10;99.90
15666;DHT22;20725;51.196;3.510;2022-12-24T10:38:53;14.00;99.90
15666;DHT22;20725;51.196;3.510;2022-12-24T10:41:20;15.00;99.90
15666;DHT22;20725;51.196;3.510;2022-12-24T10:43:48;15.40;97.20
15666;DHT22;20725;51.196;3.510;2022-12-24T10:46:17;16.60;98.90
15666;DHT22;20725;51.196;3.510;2022-12-24T10:48:52;16.70;92.90
15666;DHT22;20725;51.196;3.510;2022-12-24T10:51:24;16.60;91.30
15666;DHT22;20725;51.196;3.510;2022-12-24T10:53:59;16.70;92.10
15666;DHT22;20725;51.196;3.510;2022-12-24T10:56:27;16.90;90.10
15666;DHT22;20725;51.196;3.510;2022-12-24T10:58:54;17.70;89.20
15666;DHT22;20725;51.196;3.510;2022-12-24T11:01:42;17.90;91.00
15666;DHT22;20725;51.196;3.510;2022-12-24T11:04:16;18.30;84.20
15666;DHT22;20725;51.196;3.510;2022-12-24T11:06:52;18.90;87.50
15666;DHT22;20725;51.196;3.510;2022-12-24T11:09:22;19.60;84.90
15666;DHT22;20725;51.196;3.510;2022-12-24T11:11:49;19.10;81.40
15666;DHT22;20725;51.196;3.510;2022-12-24T11:14:18;18.60;81.60
15666;DHT22;20725;51.196;3.510;2022-12-24T11:16:51;18.40;77.60
15666;DHT22;20725;51.196;3.510;2022-12-24T11:19:28;16.80;80.60
15666;DHT22;20725;51.196;3.510;2022-12-24T11:22:02;16.60;86.60
15666;DHT22;20725;51.196;3.510;2022-12-24T11:24:31;18.40;81.90
15666;DHT22;20725;51.196;3.510;2022-12-24T11:27:22;20.00;76.90
15666;DHT22;20725;51.196;3.510;2022-12-24T11:29:49;19.70;72.00
15666;DHT22;20725;51.196;3.510;2022-12-24T11:32:18;19.30;76.80
15666;DHT22;20725;51.196;3.510;2022-12-24T11:34:47;17.70;77.10
15666;DHT22;20725;51.196;3.510;2022-12-24T11:37:16;17.40;80.50
15666;DHT22;20725;51.196;3.510;2022-12-24T11:39:46;16.80;82.50
15666;DHT22;20725;51.196;3.510;2022-12-24T11:42:27;16.50;84.00
15666;DHT22;20725;51.196;3.510;2022-12-24T11:44:56;15.70;86.30
15666;DHT22;20725;51.196;3.510;2022-12-24T11:47:32;14.70;89.70
15666;DHT22;20725;51.196;3.510;2022-12-24T11:50:27;14.80;91.50
15666;DHT22;20725;51.196;3.510;2022-12-24T11:53:04;15.10;90.80
15666;DHT22;20725;51.196;3.510;2022-12-24T11:55:40;15.20;91.50
15666;DHT22;20725;51.196;3.510;2022-12-24T11:58:17;15.20;90.90
15666;DHT22;20725;51.196;3.510;2022-12-24T12:00:47;15.60;91.00
15666;DHT22;20725;51.196;3.510;2022-12-24T12:03:26;15.90;90.20
15666;DHT22;20725;51.196;3.510;2022-12-24T12:05:57;16.60;87.00
15666;DHT22;20725;51.196;3.510;2022-12-24T12:08:27;17.20;85.70
15666;DHT22;20725;51.196;3.510;2022-12-24T12:10:57;17.60;86.00
15666;DHT22;20725;51.196;3.510;2022-12-24T12:13:28;17.70;83.00
15666;DHT22;20725;51.196;3.510;2022-12-24T12:16:06;17.90;82.60
15666;DHT22;20725;51.196;3.510;2022-12-24T12:18:38;16.80;85.30
15666;DHT22;20725;51.196;3.510;2022-12-24T12:21:12;16.10;85.90
15666;DHT22;20725;51.196;3.510;2022-12-24T12:23:43;15.20;89.50
15666;DHT22;20725;51.196;3.510;2022-12-24T12:26:17;14.70;90.60
15666;DHT22;20725;51.196;3.510;2022-12-24T12:28:48;14.40;92.00
15666;DHT22;20725;51.196;3.510;2022-12-24T12:31:21;15.30;91.60
15666;DHT22;20725;51.196;3.510;2022-12-24T12:33:53;15.60;89.30
15666;DHT22;20725;51.196;3.510;2022-12-24T12:36:28;15.80;88.40
15666;DHT22;20725;51.196;3.510;2022-12-24T12:38:56;16.00;89.10
15666;DHT22;20725;51.196;3.510;2022-12-24T12:41:34;16.20;87.40
15666;DHT22;20725;51.196;3.510;2022-12-24T12:47:21;16.50;84.40
15666;DHT22;20725;51.196;3.510;2022-12-24T12:49:59;16.10;87.10
15666;DHT22;20725;51.196;3.510;2022-12-24T12:52:42;16.10;89.50
15666;DHT22;20725;51.196;3.510;2022-12-24T12:55:22;16.40;86.70
15666;DHT22;20725;51.196;3.510;2022-12-24T12:57:53;16.00;89.30
15666;DHT22;20725;51.196;3.510;2022-12-24T13:00:23;15.50;89.40
15666;DHT22;20725;51.196;3.510;2022-12-24T13:02:59;15.00;89.70
15666;DHT22;20725;51.196;3.510;2022-12-24T13:05:50;14.80;90.80
15666;DHT22;20725;51.196;3.510;2022-12-24T13:08:40;15.00;90.60
15666;DHT22;20725;51.196;3.510;2022-12-24T13:11:30;14.80;91.10
15666;DHT22;20725;51.196;3.510;2022-12-24T13:14:25;14.30;91.70
15666;DHT22;20725;51.196;3.510;2022-12-24T13:17:20;14.10;92.30
15666;DHT22;20725;51.196;3.510;2022-12-24T13:20:18;14.00;92.50
15666;DHT22;20725;51.196;3.510;2022-12-24T13:22:48;13.90;92.40
15666;DHT22;20725;51.196;3.510;2022-12-24T13:25:25;14.10;92.20
15666;DHT22;20725;51.196;3.510;2022-12-24T13:27:52;14.70;91.40
15666;DHT22;20725;51.196;3.510;2022-12-24T13:30:37;15.50;90.30
15666;DHT22;20725;51.196;3.510;2022-12-24T13:33:08;15.90;88.50
15666;DHT22;20725;51.196;3.510;2022-12-24T13:35:37;16.00;90.00
15666;DHT22;20725;51.196;3.510;2022-12-24T13:38:34;15.20;88.60
15666;DHT22;20725;51.196;3.510;2022-12-24T13:44:29;13.70;91.60
15666;DHT22;20725;51.196;3.510;2022-12-24T13:47:01;13.10;93.30
15666;DHT22;20725;51.196;3.510;2022-12-24T13:49:32;12.80;94.30
15666;DHT22;20725;51.196;3.510;2022-12-24T13:52:15;12.80;95.10
15666;DHT22;20725;51.196;3.510;2022-12-24T13:54:46;13.10;95.00
15666;DHT22;20725;51.196;3.510;2022-12-24T13:57:31;13.30;94.80
15666;DHT22;20725;51.196;3.510;2022-12-24T14:00:04;13.80;93.70
15666;DHT22;20725;51.196;3.510;2022-12-24T14:02:37;14.20;92.30
15666;DHT22;20725;51.196;3.510;2022-12-24T14:05:15;15.20;90.60
15666;DHT22;20725;51.196;3.510;2022-12-24T14:07:45;16.70;87.00
15666;DHT22;20725;51.196;3.510;2022-12-24T14:10:20;16.90;85.70
15666;DHT22;20725;51.196;3.510;2022-12-24T14:12:50;16.90;84.30
15666;DHT22;20725;51.196;3.510;2022-12-24T14:18:34;14.90;88.90
15666;DHT22;20725;51.196;3.510;2022-12-24T14:21:04;14.20;91.20
15666;DHT22;20725;51.196;3.510;2022-12-24T14:23:48;13.80;91.90
15666;DHT22;20725;51.196;3.510;2022-12-24T14:26:17;13.30;93.40
15666;DHT22;20725;51.196;3.510;2022-12-24T14:28:50;13.10;93.90
15666;DHT22;20725;51.196;3.510;2022-12-24T14:31:19;13.10;94.60
15666;DHT22;20725;51.196;3.510;2022-12-24T14:33:48;13.20;94.00
15666;DHT22;20725;51.196;3.510;2022-12-24T14:36:20;13.40;93.90
15666;DHT22;20725;51.196;3.510;2022-12-24T14:38:47;13.70;93.60
15666;DHT22;20725;51.196;3.510;2022-12-24T14:41:31;13.50;93.40
15666;DHT22;20725;51.196;3.510;2022-12-24T14:44:08;13.40;94.10
15666;DHT22;20725;51.196;3.510;2022-12-24T14:46:40;13.30;94.20
15666;DHT22;20725;51.196;3.510;2022-12-24T14:49:19;12.90;95.10
15666;DHT22;20725;51.196;3.510;2022-12-24T14:51:54;12.50;96.00
15666;DHT22;20725;51.196;3.510;2022-12-24T14:54:44;12.30;96.20
15666;DHT22;20725;51.196;3.510;2022-12-24T14:57:19;12.20;96.70
15666;DHT22;20725;51.196;3.510;2022-12-24T14:59:48;12.10;96.40
15666;DHT22;20725;51.196;3.510;2022-12-24T15:02:39;11.90;97.80
15666;DHT22;20725;51.196;3.510;2022-12-24T15:05:12;11.70;98.40
15666;DHT22;20725;51.196;3.510;2022-12-24T15:07:45;11.60;98.90
15666;DHT22;20725;51.196;3.510;2022-12-24T15:10:28;11.50;99.20
15666;DHT22;20725;51.196;3.510;2022-12-24T15:13:00;11.50;99.50
15666;DHT22;20725;51.196;3.510;2022-12-24T15:15:28;11.40;99.60
15666;DHT22;20725;51.196;3.510;2022-12-24T15:17:56;11.40;99.40
15666;DHT22;20725;51.196;3.510;2022-12-24T15:20:27;11.40;99.20
15666;DHT22;20725;51.196;3.510;2022-12-24T15:22:56;11.40;99.90
15666;DHT22;20725;51.196;3.510;2022-12-24T15:25:25;11.40;99.90
15666;DHT22;20725;51.196;3.510;2022-12-24T15:27:55;11.40;99.90
15666;DHT22;20725;51.196;3.510;2022-12-24T15:30:24;11.40;99.90
15666;DHT22;20725;51.196;3.510;2022-12-24T15:32:53;11.40;99.90
15666;DHT22;20725;51.196;3.510;2022-12-24T15:35:34;11.40;99.90
15666;DHT22;20725;51.196;3.510;2022-12-24T15:38:21;11.40;99.90
15666;DHT22;20725;51.196;3.510;2022-12-24T15:40:48;11.30;99.90
15666;DHT22;20725;51.196;3.510;2022-12-24T15:43:16;11.30;99.90
15666;DHT22;20725;51.196;3.510;2022-12-24T15:45:45;11.20;99.90
15666;DHT22;20725;51.196;3.510;2022-12-24T15:48:19;11.20;99.90
15666;DHT22;20725;51.196;3.510;2022-12-24T15:50:51;11.10;99.90
15666;DHT22;20725;51.196;3.510;2022-12-24T15:53:24;11.10;99.90
15666;DHT22;20725;51.196;3.510;2022-12-24T15:56:02;11.10;99.90
15666;DHT22;20725;51.196;3.510;2022-12-24T15:58:31;11.10;99.90
15666;DHT22;20725;51.196;3.510;2022-12-24T16:01:04;11.00;99.90
15666;DHT22;20725;51.196;3.510;2022-12-24T16:03:32;10.80;99.90
15666;DHT22;20725;51.196;3.510;2022-12-24T16:06:02;10.80;99.90
15666;DHT22;20725;51.196;3.510;2022-12-24T16:08:30;10.80;99.90